createdAt,value
2023-08-11T00:01:31.208Z,86.20
2023-08-11T00:03:59.456Z,86.20
2023-08-11T00:06:29.218Z,86.20
2023-08-11T00:08:57.425Z,86.20
2023-08-11T00:11:25.874Z,86.20
2023-08-11T00:13:54.040Z,86.20
2023-08-11T00:16:22.239Z,86.20
2023-08-11T00:18:50.362Z,86.20
2023-08-11T00:21:18.451Z,86.20
2023-08-11T00:23:47.968Z,86.20
2023-08-11T00:26:16.137Z,86.30
2023-08-11T00:28:45.521Z,86.30
2023-08-11T00:31:14.748Z,86.30
2023-08-11T00:33:47.737Z,86.30
2023-08-11T00:36:16.267Z,86.30
2023-08-11T00:38:44.412Z,86.30
2023-08-11T00:41:15.631Z,86.30
2023-08-11T00:43:43.757Z,86.30
2023-08-11T00:46:13.150Z,86.30
2023-08-11T00:48:41.791Z,86.30
2023-08-11T00:51:11.077Z,86.30
2023-08-11T00:53:39.199Z,86.30
2023-08-11T00:56:08.489Z,86.30
2023-08-11T00:58:38.006Z,86.40
2023-08-11T01:01:06.525Z,86.40
2023-08-11T01:03:35.585Z,86.40
2023-08-11T01:06:10.797Z,86.40
2023-08-11T01:08:40.917Z,86.40
2023-08-11T01:11:13.829Z,86.40
2023-08-11T01:13:44.703Z,86.40
2023-08-11T01:16:13.283Z,86.40
2023-08-11T01:18:41.438Z,86.40
2023-08-11T01:21:12.263Z,86.40
2023-08-11T01:23:45.476Z,86.40
2023-08-11T01:26:13.895Z,86.40
2023-08-11T01:28:43.298Z,86.40
2023-08-11T01:31:12.127Z,86.40
2023-08-11T01:33:40.433Z,86.40
2023-08-11T01:36:09.562Z,86.40
2023-08-11T01:38:37.713Z,86.40
2023-08-11T01:41:07.783Z,86.40
2023-08-11T01:43:36.202Z,86.40
2023-08-11T01:46:04.519Z,86.40
2023-08-11T01:48:32.783Z,86.40
2023-08-11T01:51:00.922Z,86.40
2023-08-11T01:53:31.918Z,86.40
2023-08-11T01:56:00.000Z,86.40
2023-08-11T01:58:29.693Z,86.40
2023-08-11T02:00:57.768Z,86.40
2023-08-11T02:03:26.033Z,86.40
2023-08-11T02:05:56.666Z,86.40
2023-08-11T02:08:24.775Z,86.40
2023-08-11T02:10:54.077Z,86.40
2023-08-11T02:13:22.209Z,86.40
2023-08-11T02:15:51.791Z,86.40
2023-08-11T02:18:20.025Z,86.40
2023-08-11T02:20:48.197Z,86.40
2023-08-11T02:23:16.309Z,86.40
2023-08-11T02:25:44.544Z,86.40
2023-08-11T02:28:13.756Z,86.40
2023-08-11T02:30:42.357Z,86.40
2023-08-11T02:33:11.893Z,86.40
2023-08-11T02:35:40.062Z,86.40
2023-08-11T02:38:08.392Z,86.40
2023-08-11T02:40:37.313Z,86.40
2023-08-11T02:43:05.627Z,86.40
2023-08-11T02:45:33.820Z,86.40
2023-08-11T02:48:02.617Z,86.40
2023-08-11T02:50:32.197Z,86.40
2023-08-11T02:53:00.311Z,86.40
2023-08-11T02:55:28.423Z,86.40
2023-08-11T02:57:56.499Z,86.40
2023-08-11T03:00:24.765Z,86.40
2023-08-11T03:02:53.271Z,86.40
2023-08-11T03:05:21.593Z,86.40
2023-08-11T03:07:51.337Z,86.40
2023-08-11T03:10:19.473Z,86.40
2023-08-11T03:12:48.789Z,86.40
2023-08-11T03:15:16.905Z,86.40
2023-08-11T03:17:45.178Z,86.40
2023-08-11T03:20:14.861Z,86.40
2023-08-11T03:22:43.593Z,86.30
2023-08-11T03:25:13.788Z,86.40
2023-08-11T03:27:43.858Z,86.30
2023-08-11T03:30:13.576Z,86.30
2023-08-11T03:32:41.842Z,86.30
2023-08-11T03:35:10.447Z,86.30
2023-08-11T03:37:38.662Z,86.30
2023-08-11T03:40:10.917Z,86.30
2023-08-11T03:42:41.886Z,86.30
2023-08-11T03:45:13.024Z,86.30
2023-08-11T03:47:41.378Z,86.30
2023-08-11T03:50:10.078Z,86.30
2023-08-11T03:52:38.357Z,86.20
2023-08-11T03:55:10.681Z,86.20
2023-08-11T03:57:39.075Z,86.20
2023-08-11T04:00:10.683Z,86.20
2023-08-11T04:02:38.888Z,86.20
2023-08-11T04:05:07.721Z,86.20
2023-08-11T04:07:35.809Z,86.20
2023-08-11T04:10:05.663Z,86.20
2023-08-11T04:12:34.113Z,86.20
2023-08-11T04:15:02.263Z,86.20
2023-08-11T04:17:33.107Z,86.20
2023-08-11T04:20:01.374Z,86.20
2023-08-11T04:22:38.575Z,86.20
2023-08-11T04:25:08.321Z,86.10
2023-08-11T04:27:36.406Z,86.10
2023-08-11T04:30:04.804Z,86.10
2023-08-11T04:32:34.272Z,86.10
2023-08-11T04:35:02.463Z,86.10
2023-08-11T04:37:30.624Z,86.10
2023-08-11T04:39:58.721Z,86.10
2023-08-11T04:42:26.834Z,86.10
2023-08-11T04:44:56.580Z,86.10
2023-08-11T04:47:25.161Z,86.10
2023-08-11T04:49:54.636Z,86.10
2023-08-11T04:52:22.763Z,86.10
2023-08-11T04:54:50.854Z,86.10
2023-08-11T04:57:18.975Z,86.10
2023-08-11T04:59:47.822Z,86.10
2023-08-11T05:02:20.157Z,86.10
2023-08-11T05:04:48.254Z,86.10
2023-08-11T05:07:17.807Z,86.10
2023-08-11T05:09:46.316Z,86.10
2023-08-11T05:12:14.526Z,86.10
2023-08-11T05:14:43.899Z,86.10
2023-08-11T05:17:12.269Z,86.10
2023-08-11T05:19:40.689Z,86.10
2023-08-11T05:22:14.178Z,86.10
2023-08-11T05:24:43.830Z,86.10
2023-08-11T05:27:11.932Z,86.10
2023-08-11T05:29:40.047Z,86.10
2023-08-11T05:32:08.381Z,86.10
2023-08-11T05:34:36.797Z,86.10
2023-08-11T05:37:06.423Z,86.10
2023-08-11T05:39:36.507Z,86.10
2023-08-11T05:42:08.316Z,86.10
2023-08-11T05:44:36.490Z,86.10
2023-08-11T05:47:05.593Z,86.10
2023-08-11T05:49:33.762Z,86.10
2023-08-11T05:52:01.837Z,86.10
2023-08-11T05:54:30.026Z,86.10
2023-08-11T05:56:58.955Z,86.10
2023-08-11T05:59:28.559Z,86.10
2023-08-11T06:01:56.656Z,86.10
2023-08-11T06:04:24.830Z,86.10
2023-08-11T06:06:52.942Z,86.10
2023-08-11T06:09:21.116Z,86.10
2023-08-11T06:11:49.299Z,86.10
2023-08-11T06:14:17.692Z,86.10
2023-08-11T06:16:47.222Z,86.10
2023-08-11T06:19:17.607Z,86.10
2023-08-11T06:21:46.622Z,86.10
2023-08-11T06:24:14.833Z,86.20
2023-08-11T06:26:43.492Z,86.20
2023-08-11T06:29:11.801Z,86.10
2023-08-11T06:31:44.911Z,86.10
2023-08-11T06:34:18.200Z,86.20
2023-08-11T06:36:47.670Z,86.10
2023-08-11T06:39:16.101Z,86.20
2023-08-11T06:41:44.247Z,86.20
2023-08-11T06:44:12.357Z,86.20
2023-08-11T06:46:40.448Z,86.10
2023-08-11T06:49:08.640Z,86.10
2023-08-11T06:51:38.152Z,86.10
2023-08-11T06:54:06.585Z,86.10
2023-08-11T06:56:34.827Z,86.00
2023-08-11T06:59:09.018Z,86.00
2023-08-11T07:01:37.270Z,85.80
2023-08-11T07:04:06.278Z,85.60
2023-08-11T07:06:34.392Z,85.60
2023-08-11T07:09:03.926Z,85.60
2023-08-11T07:11:32.014Z,85.40
2023-08-11T07:14:00.114Z,85.40
2023-08-11T07:16:28.270Z,85.40
2023-08-11T07:18:56.424Z,85.40
2023-08-11T07:21:24.551Z,84.90
2023-08-11T07:23:53.016Z,84.80
2023-08-11T07:26:22.466Z,84.70
2023-08-11T07:28:50.646Z,84.90
2023-08-11T07:31:18.806Z,84.70
2023-08-11T07:33:46.994Z,84.40
2023-08-11T07:36:15.095Z,84.30
2023-08-11T07:38:43.506Z,84.40
2023-08-11T07:41:11.637Z,84.50
2023-08-11T07:43:41.173Z,84.30
2023-08-11T07:46:09.354Z,84.10
2023-08-11T07:48:38.738Z,84.00
2023-08-11T07:51:06.864Z,83.90
2023-08-11T07:53:34.964Z,83.90
2023-08-11T07:56:03.355Z,83.80
2023-08-11T07:58:31.433Z,83.70
2023-08-11T08:01:02.844Z,83.70
2023-08-11T08:03:31.066Z,83.70
2023-08-11T08:05:59.251Z,83.70
2023-08-11T08:08:27.530Z,83.70
2023-08-11T08:10:55.661Z,83.60
2023-08-11T08:13:23.739Z,83.70
2023-08-11T08:15:51.836Z,83.70
2023-08-11T08:18:21.459Z,83.60
2023-08-11T08:20:49.605Z,83.60
2023-08-11T08:23:18.286Z,83.60
2023-08-11T08:25:46.409Z,83.60
2023-08-11T08:28:14.628Z,83.60
2023-08-11T08:30:42.738Z,83.60
2023-08-11T08:33:11.061Z,83.60
2023-08-11T08:35:40.595Z,83.60
2023-08-11T08:38:08.788Z,83.60
2023-08-11T08:40:37.101Z,83.60
2023-08-11T08:43:05.735Z,83.60
2023-08-11T08:45:38.239Z,83.60
2023-08-11T08:48:09.457Z,83.60
2023-08-11T08:50:38.113Z,83.60
2023-08-11T08:53:07.668Z,83.60
2023-08-11T08:55:36.064Z,83.70
2023-08-11T08:58:04.360Z,83.70
2023-08-11T09:00:34.260Z,83.70
2023-08-11T09:03:02.682Z,83.70
2023-08-11T09:05:30.872Z,83.70
2023-08-11T09:07:59.032Z,83.60
2023-08-11T09:10:28.569Z,83.70
2023-08-11T09:12:56.849Z,83.70
2023-08-11T09:15:25.097Z,83.80
2023-08-11T09:17:53.345Z,83.70
2023-08-11T09:20:21.855Z,83.60
2023-08-11T09:22:49.996Z,83.70
2023-08-11T09:25:19.715Z,83.70
2023-08-11T09:27:52.954Z,83.70
2023-08-11T09:30:21.268Z,83.70
2023-08-11T09:32:50.481Z,83.80
2023-08-11T09:35:23.066Z,83.90
2023-08-11T09:37:51.188Z,83.80
2023-08-11T09:40:19.404Z,83.80
2023-08-11T09:42:47.587Z,83.80
2023-08-11T09:45:17.094Z,83.90
2023-08-11T09:47:45.291Z,83.90
2023-08-11T09:50:13.484Z,83.90
2023-08-11T09:52:42.289Z,83.90
2023-08-11T09:55:11.225Z,83.90
2023-08-11T09:57:39.838Z,83.90
2023-08-11T10:00:12.798Z,84.00
2023-08-11T10:02:48.316Z,84.00
2023-08-11T10:05:16.927Z,84.00
2023-08-11T10:07:45.740Z,84.00
2023-08-11T10:10:15.643Z,84.10
2023-08-11T10:12:47.957Z,84.00
2023-08-11T10:15:16.279Z,84.10
2023-08-11T10:17:45.855Z,84.10
2023-08-11T10:20:14.197Z,84.20
2023-08-11T10:22:42.372Z,84.20
2023-08-11T10:25:10.976Z,84.20
2023-08-11T10:27:40.335Z,84.20
2023-08-11T10:30:09.731Z,84.20
2023-08-11T10:32:37.896Z,84.30
2023-08-11T10:35:10.000Z,84.30
2023-08-11T10:37:38.166Z,84.30
2023-08-11T10:40:14.458Z,84.30
2023-08-11T10:42:42.647Z,84.30
2023-08-11T10:45:11.566Z,84.40
2023-08-11T10:47:40.276Z,84.40
2023-08-11T10:50:11.626Z,84.40
2023-08-11T10:52:39.750Z,84.40
2023-08-11T10:55:08.723Z,84.40
2023-08-11T10:57:37.238Z,84.50
2023-08-11T11:00:06.129Z,84.50
2023-08-11T11:02:36.556Z,84.50
2023-08-11T11:05:08.731Z,84.50
2023-08-11T11:07:39.940Z,84.50
2023-08-11T11:10:09.398Z,84.50
2023-08-11T11:12:37.583Z,84.50
2023-08-11T11:15:06.505Z,84.50
2023-08-11T11:17:34.678Z,84.50
2023-08-11T11:20:03.566Z,84.60
2023-08-11T11:22:31.911Z,84.60
2023-08-11T11:25:02.776Z,84.60
2023-08-11T11:27:30.949Z,84.60
2023-08-11T11:30:00.107Z,84.60
2023-08-11T11:32:28.851Z,84.60
2023-08-11T11:34:56.972Z,84.70
2023-08-11T11:37:26.280Z,84.60
2023-08-11T11:39:55.760Z,84.70
2023-08-11T11:42:25.261Z,84.70
2023-08-11T11:44:53.387Z,84.70
2023-08-11T11:47:21.522Z,84.70
2023-08-11T11:49:56.503Z,84.70
2023-08-11T11:52:25.460Z,84.80
2023-08-11T11:54:54.042Z,84.80
2023-08-11T11:57:22.833Z,84.80
2023-08-11T11:59:52.429Z,84.80
2023-08-11T12:02:23.567Z,84.80
2023-08-11T12:04:52.213Z,84.80
2023-08-11T12:07:33.055Z,84.90
2023-08-11T12:10:01.359Z,84.90
2023-08-11T12:12:29.661Z,84.90
2023-08-11T12:15:04.893Z,84.90
2023-08-11T12:17:33.549Z,84.90
2023-08-11T12:20:04.021Z,85.00
2023-08-11T12:22:32.472Z,85.00
2023-08-11T12:25:00.606Z,85.00
2023-08-11T12:27:29.869Z,85.00
2023-08-11T12:29:57.995Z,85.00
2023-08-11T12:32:27.613Z,85.00
2023-08-11T12:34:55.778Z,85.00
2023-08-11T12:37:23.959Z,85.00
2023-08-11T12:39:52.150Z,85.10
2023-08-11T12:42:20.284Z,85.10
2023-08-11T12:44:48.398Z,85.10
2023-08-11T12:47:16.534Z,85.10
2023-08-11T12:49:46.044Z,85.10
2023-08-11T12:52:14.163Z,85.10
2023-08-11T12:54:42.300Z,85.20
2023-08-11T12:57:10.444Z,85.20
2023-08-11T12:59:38.602Z,85.20
2023-08-11T13:02:07.525Z,85.20
2023-08-11T13:04:35.751Z,85.20
2023-08-11T13:07:05.836Z,85.20
2023-08-11T13:09:34.006Z,85.30
2023-08-11T13:12:02.126Z,85.30
2023-08-11T13:14:30.294Z,85.30
2023-08-11T13:16:58.415Z,85.30
2023-08-11T13:19:26.716Z,85.30
2023-08-11T13:22:00.554Z,85.40
2023-08-11T13:24:30.170Z,85.40
2023-08-11T13:26:58.276Z,85.40
2023-08-11T13:29:26.443Z,85.40
2023-08-11T13:31:54.867Z,85.40
2023-08-11T13:34:23.143Z,85.40
2023-08-11T13:36:51.684Z,85.50
2023-08-11T13:39:20.622Z,85.50
2023-08-11T13:41:50.130Z,85.50
2023-08-11T13:44:18.279Z,85.50
2023-08-11T13:46:46.358Z,85.50
2023-08-11T13:49:14.626Z,85.60
2023-08-11T13:51:42.861Z,85.60
2023-08-11T13:54:11.044Z,85.60
2023-08-11T13:56:39.232Z,85.60
2023-08-11T13:59:08.704Z,85.70
2023-08-11T14:01:36.932Z,85.70
2023-08-11T14:04:05.450Z,85.60
2023-08-11T14:06:33.873Z,85.70
2023-08-11T14:09:01.984Z,85.70
2023-08-11T14:11:30.188Z,85.70
2023-08-11T14:13:58.333Z,85.80
2023-08-11T14:16:27.963Z,85.80
2023-08-11T14:18:56.993Z,85.80
2023-08-11T14:21:25.999Z,85.80
2023-08-11T14:23:54.138Z,85.80
2023-08-11T14:26:26.585Z,85.90
2023-08-11T14:28:54.749Z,85.90
2023-08-11T14:31:22.971Z,85.90
2023-08-11T14:33:52.561Z,85.90
2023-08-11T14:36:20.762Z,85.90
2023-08-11T14:38:48.860Z,86.00
2023-08-11T14:41:16.970Z,86.00
2023-08-11T14:43:45.097Z,86.00
2023-08-11T14:46:13.273Z,86.00
2023-08-11T14:48:41.451Z,86.10
2023-08-11T14:51:10.931Z,86.10
2023-08-11T14:53:39.063Z,86.10
2023-08-11T14:56:07.660Z,86.10
2023-08-11T14:58:37.085Z,86.20
2023-08-11T15:01:05.626Z,86.20
2023-08-11T15:03:33.970Z,86.20
2023-08-11T15:06:06.609Z,86.30
2023-08-11T15:08:36.729Z,86.30
2023-08-11T15:11:04.948Z,86.30
2023-08-11T15:13:33.120Z,86.30
2023-08-11T15:16:01.272Z,86.30
2023-08-11T15:18:31.517Z,86.40
2023-08-11T15:20:59.979Z,86.40
2023-08-11T15:23:30.419Z,86.40
2023-08-11T15:26:00.219Z,86.40
2023-08-11T15:28:28.324Z,86.50
2023-08-11T15:30:56.840Z,86.50
2023-08-11T15:33:25.023Z,86.50
2023-08-11T15:35:53.424Z,86.60
2023-08-11T15:38:22.702Z,86.60
2023-08-11T15:40:51.092Z,86.60
2023-08-11T15:43:20.574Z,86.60
2023-08-11T15:45:48.760Z,86.60
2023-08-11T15:48:16.947Z,86.70
2023-08-11T15:50:45.103Z,86.70
2023-08-11T15:53:13.249Z,86.80
2023-08-11T15:55:41.416Z,86.70
2023-08-11T15:58:09.830Z,86.70
2023-08-11T16:00:39.625Z,86.80
2023-08-11T16:03:07.887Z,86.70
2023-08-11T16:05:36.148Z,86.90
2023-08-11T16:08:04.528Z,86.80
2023-08-11T16:10:33.857Z,86.80
2023-08-11T16:13:01.950Z,86.80
2023-08-11T16:15:30.802Z,86.90
2023-08-11T16:18:00.450Z,86.90
2023-08-11T16:20:28.608Z,86.90
2023-08-11T16:22:56.745Z,87.00
2023-08-11T16:25:25.046Z,87.00
2023-08-11T16:27:53.206Z,87.00
2023-08-11T16:30:21.326Z,87.00
2023-08-11T16:32:49.485Z,87.10
2023-08-11T16:35:19.039Z,87.10
2023-08-11T16:37:47.195Z,87.20
2023-08-11T16:40:15.345Z,87.20
2023-08-11T16:42:43.468Z,87.20
2023-08-11T16:45:12.072Z,87.20
2023-08-11T16:47:40.239Z,87.20
2023-08-11T16:50:09.944Z,87.20
2023-08-11T16:52:39.464Z,87.20
2023-08-11T16:55:08.987Z,87.30
2023-08-11T16:57:37.111Z,87.30
2023-08-11T17:00:06.270Z,87.30
2023-08-11T17:02:34.549Z,87.30
2023-08-11T17:05:02.697Z,87.30
2023-08-11T17:07:30.812Z,87.30
2023-08-11T17:10:00.324Z,87.30
2023-08-11T17:12:28.423Z,87.40
2023-08-11T17:14:56.514Z,87.40
2023-08-11T17:17:26.709Z,87.40
2023-08-11T17:19:54.979Z,87.40
2023-08-11T17:22:23.086Z,87.40
2023-08-11T17:24:51.301Z,87.40
2023-08-11T17:27:20.768Z,87.40
2023-08-11T17:29:48.885Z,87.40
2023-08-11T17:32:20.757Z,87.40
2023-08-11T17:34:57.665Z,87.40
2023-08-11T17:37:26.555Z,87.40
2023-08-11T17:39:55.153Z,87.40
2023-08-11T17:42:24.657Z,87.50
2023-08-11T17:44:52.819Z,87.50
2023-08-11T17:47:20.955Z,87.50
2023-08-11T17:49:49.231Z,87.50
2023-08-11T17:52:17.337Z,87.50
2023-08-11T17:54:45.476Z,87.50
2023-08-11T17:57:13.622Z,87.50
2023-08-11T17:59:43.168Z,87.50
2023-08-11T18:02:11.391Z,87.50
2023-08-11T18:04:39.777Z,87.50
2023-08-11T18:07:07.943Z,87.50
2023-08-11T18:09:36.058Z,87.50
2023-08-11T18:12:04.306Z,87.50
2023-08-11T18:14:32.958Z,87.50
2023-08-11T18:17:02.568Z,87.50
2023-08-11T18:19:30.701Z,87.50
2023-08-11T18:21:58.830Z,87.50
2023-08-11T18:24:27.077Z,87.50
2023-08-11T18:26:55.203Z,87.50
2023-08-11T18:29:23.342Z,87.50
2023-08-11T18:31:51.526Z,87.50
2023-08-11T18:34:22.160Z,87.50
2023-08-11T18:36:50.825Z,87.50
2023-08-11T18:39:18.951Z,87.50
2023-08-11T18:41:47.093Z,87.50
2023-08-11T18:44:15.433Z,87.50
2023-08-11T18:46:43.665Z,87.50
2023-08-11T18:49:11.773Z,87.50
2023-08-11T18:51:42.282Z,87.50
2023-08-11T18:54:10.423Z,87.50
2023-08-11T18:56:43.244Z,87.50
2023-08-11T18:59:12.270Z,87.50
2023-08-11T19:01:41.793Z,87.40
2023-08-11T19:04:10.745Z,87.40
2023-08-11T19:06:41.573Z,87.40
2023-08-11T19:09:11.341Z,87.40
2023-08-11T19:11:39.778Z,87.40
2023-08-11T19:14:08.517Z,87.40
2023-08-11T19:16:37.687Z,87.40
2023-08-11T19:19:06.582Z,87.40
2023-08-11T19:21:34.703Z,87.40
2023-08-11T19:24:04.326Z,87.40
2023-08-11T19:26:32.509Z,87.40
2023-08-11T19:29:01.216Z,87.40
2023-08-11T19:31:32.905Z,87.40
2023-08-11T19:34:01.066Z,87.40
2023-08-11T19:36:33.160Z,87.40
2023-08-11T19:39:03.582Z,87.40
2023-08-11T19:41:33.096Z,87.40
2023-08-11T19:44:01.292Z,87.40
2023-08-11T19:46:29.469Z,87.40
2023-08-11T19:49:03.089Z,87.40
2023-08-11T19:51:32.539Z,87.40
2023-08-11T19:54:00.874Z,87.40
2023-08-11T19:56:29.018Z,87.40
2023-08-11T19:58:58.540Z,87.40
2023-08-11T20:01:28.189Z,87.40
2023-08-11T20:03:56.350Z,87.40
2023-08-11T20:06:24.544Z,87.40
2023-08-11T20:08:53.285Z,87.40
2023-08-11T20:11:21.383Z,87.40
2023-08-11T20:13:49.560Z,87.40
2023-08-11T20:16:19.124Z,87.40
2023-08-11T20:18:47.369Z,87.40
2023-08-11T20:21:15.640Z,87.40
2023-08-11T20:23:43.770Z,87.40
2023-08-11T20:26:11.893Z,87.40
2023-08-11T20:28:41.186Z,87.40
2023-08-11T20:31:09.346Z,87.40
2023-08-11T20:33:38.897Z,87.30
2023-08-11T20:36:07.410Z,87.30
2023-08-11T20:38:37.918Z,87.30
2023-08-11T20:41:07.263Z,87.30
2023-08-11T20:43:35.348Z,87.30
2023-08-11T20:46:03.520Z,87.30
2023-08-11T20:48:31.711Z,87.30
2023-08-11T20:51:04.330Z,87.30
2023-08-11T20:53:32.507Z,87.30
2023-08-11T20:56:01.650Z,87.30
2023-08-11T20:58:29.885Z,87.30
2023-08-11T21:00:59.068Z,87.30
2023-08-11T21:03:27.627Z,87.30
2023-08-11T21:05:55.812Z,87.30
2023-08-11T21:08:25.298Z,87.30
2023-08-11T21:10:53.469Z,87.30
2023-08-11T21:13:21.569Z,87.30
2023-08-11T21:15:49.720Z,87.30
2023-08-11T21:18:17.807Z,87.20
2023-08-11T21:20:45.906Z,87.30
2023-08-11T21:23:14.040Z,87.20
2023-08-11T21:25:43.729Z,87.20
2023-08-11T21:28:11.830Z,87.20
2023-08-11T21:30:40.263Z,87.20
2023-08-11T21:33:08.496Z,87.20
2023-08-11T21:35:36.703Z,87.20
2023-08-11T21:38:05.137Z,87.20
2023-08-11T21:40:34.280Z,87.20
2023-08-11T21:43:03.787Z,87.20
2023-08-11T21:45:31.958Z,87.20
2023-08-11T21:48:00.085Z,87.20
2023-08-11T21:50:28.421Z,87.30
2023-08-11T21:52:59.772Z,87.20
2023-08-11T21:55:32.105Z,87.20
2023-08-11T21:58:00.184Z,87.20
2023-08-11T22:00:29.731Z,87.20
2023-08-11T22:03:02.997Z,87.20
2023-08-11T22:05:31.575Z,87.30
2023-08-11T22:08:00.430Z,87.20
2023-08-11T22:10:28.796Z,87.30
2023-08-11T22:12:56.994Z,87.20
2023-08-11T22:15:25.170Z,87.20
2023-08-11T22:17:55.682Z,87.20
2023-08-11T22:20:23.955Z,87.20
2023-08-11T22:22:52.046Z,87.20
2023-08-11T22:25:20.778Z,87.20
2023-08-11T22:27:49.390Z,87.20
2023-08-11T22:30:17.741Z,87.20
2023-08-11T22:32:45.873Z,87.20
2023-08-11T22:35:14.383Z,87.20
2023-08-11T22:37:42.500Z,87.20
2023-08-11T22:40:11.426Z,87.20
2023-08-11T22:42:39.526Z,87.20
2023-08-11T22:45:08.637Z,87.20
2023-08-11T22:47:39.020Z,87.20
2023-08-11T22:50:10.273Z,87.20
2023-08-11T22:52:39.781Z,87.20
2023-08-11T22:55:08.630Z,87.20
2023-08-11T22:57:36.746Z,87.20
2023-08-11T23:00:07.977Z,87.20
2023-08-11T23:02:36.135Z,87.20
2023-08-11T23:05:04.223Z,87.20
2023-08-11T23:07:32.323Z,87.20
2023-08-11T23:10:01.925Z,87.20
2023-08-11T23:12:31.863Z,87.20
2023-08-11T23:15:00.082Z,87.20
2023-08-11T23:17:31.838Z,87.10
2023-08-11T23:20:00.216Z,87.10
2023-08-11T23:22:28.318Z,87.20
2023-08-11T23:24:56.424Z,87.20
2023-08-11T23:27:31.944Z,87.20
2023-08-11T23:30:00.183Z,87.20
2023-08-11T23:32:33.614Z,87.20
2023-08-11T23:35:02.028Z,87.20
2023-08-11T23:37:30.206Z,87.10
2023-08-11T23:39:58.561Z,87.10
2023-08-11T23:42:31.330Z,87.10
2023-08-11T23:45:06.865Z,87.00
2023-08-11T23:47:39.138Z,87.00
2023-08-11T23:50:07.968Z,86.90
2023-08-11T23:52:36.731Z,86.90
2023-08-11T23:55:07.067Z,86.80
2023-08-11T23:57:37.261Z,86.80
